Flight Track Log - Related Links

Times and Time Zones

All times are in EDT time to prevent confusion due to time zone crossing. See the N700QA flight status page for this flight to view local times or setup timezone preferences in your user account.

Time Position Orientation Groundspeed Altitude Reporting Facility
EDT Latitude Longitude Course Direction KTS MPH feet Rate Location/Type
Tue 09:00:50 PM 33.9244 -118.4589 59° Northeast 175 201 2,400  Level Los Angeles Center
Tue 09:01:52 PM 33.8964 -118.5244 243° Southwest 222 255 3,900 1,742 Climbing Los Angeles Center
Tue 09:02:54 PM 33.8356 -118.5383 191° South 249 287 6,000 2,177 Climbing Los Angeles Center
Tue 09:03:56 PM 33.8297 -118.4606 95° East 252 290 8,400 1,984 Climbing Los Angeles Center
Tue 09:04:58 PM 33.8831 -118.4419 16° North 243 280 10,100 1,854 Climbing Los Angeles Center
Tue 09:05:59 PM 33.9581 -118.3900 30° Northeast 277 319 12,200 1,951 Climbing Los Angeles Center
Tue 09:06:00 PM 34.2794 -117.8079 59° Northeast  Level FlightAware Approximate
Tue 09:07:01 PM 34.0039 -118.3083 56° Northeast 289 333 14,100  Level Los Angeles Center
Tue 09:08:04 PM 34.0508 -118.2258 56° Northeast 295 339 15,700 1,500 Climbing Los Angeles Center
Tue 09:09:05 PM 34.1003 -118.1403 55° Northeast 307 353 17,200 1,317 Climbing Los Angeles Center
Tue 09:10:07 PM 34.1508 -118.0511 56° Northeast 318 366 18,400 1,355 Climbing Los Angeles Center
Tue 09:11:09 PM 34.2033 -117.9592 55° Northeast 330 380 20,000 1,306 Climbing Los Angeles Center
Tue 09:12:11 PM 34.2539 -117.8678 56° Northeast 327 376 21,100 1,113 Climbing Los Angeles Center
Tue 09:13:13 PM 34.3175 -117.7542 56° Northeast 339 390 22,300 1,016 Climbing Los Angeles Center
Tue 09:14:15 PM 34.3717 -117.6583 56° Northeast 344 396 23,200 919 Climbing Los Angeles Center
Tue 09:15:17 PM 34.4194 -117.5736 56° Northeast 353 406 24,200 919 Climbing Los Angeles Center
Tue 09:16:19 PM 34.4850 -117.4542 56° Northeast 357 411 25,100 780 Climbing Los Angeles Center
Tue 09:17:20 PM 34.5450 -117.3561 53° Northeast 365 420 25,800 732 Climbing Los Angeles Center
Tue 09:18:22 PM 34.6156 -117.2636 47° Northeast 375 432 26,600 677 Climbing Los Angeles Center
Tue 09:19:24 PM 34.6833 -117.1681 49° Northeast 375 432 27,200 581 Climbing Los Angeles Center
Tue 09:20:26 PM 34.7522 -117.0703 49° Northeast 380 437 27,800 634 Climbing Los Angeles Center
Tue 09:21:27 PM 34.8233 -116.9722 49° Northeast 386 444 28,500 581 Climbing Los Angeles Center
Tue 09:22:30 PM 34.9106 -116.8486 49° Northeast 396 456 29,000 484 Climbing Los Angeles Center
Tue 09:23:31 PM 34.9814 -116.7475 49° Northeast 401 461 29,500 390 Climbing Los Angeles Center
Tue 09:24:33 PM 35.0553 -116.6436 49° Northeast 406 467 29,800 484 Climbing Los Angeles Center
Tue 09:25:35 PM 35.1303 -116.5381 49° Northeast 411 473 30,500 581 Climbing Los Angeles Center
Tue 09:26:37 PM 35.2036 -116.4331 49° Northeast 410 472 31,000 532 Climbing Los Angeles Center
Tue 09:27:39 PM 35.2925 -116.3067 49° Northeast 409 471 31,600 629 Climbing Los Angeles Center
Tue 09:28:41 PM 35.3661 -116.2025 49° Northeast 407 468 32,300 634 Climbing Los Angeles Center
Tue 09:29:42 PM 35.4372 -116.0972 50° Northeast 403 464 32,900 341 Climbing Los Angeles Center
Tue 09:30:44 PM 35.5119 -115.9914 49° Northeast 409 471 33,000 97 Climbing Los Angeles Center
Tue 09:31:46 PM 35.5953 -115.8719 49° Northeast 418 481 33,100 48 Climbing Los Angeles Center
Tue 09:32:48 PM 35.6731 -115.7594 50° Northeast 429 494 33,100  Level Los Angeles Center
Tue 09:33:50 PM 35.7517 -115.6453 50° Northeast 436 502 33,100  Level Los Angeles Center
Tue 09:34:51 PM 35.8325 -115.5289 49° Northeast 445 512 33,100 -49 Level Los Angeles Center
Tue 09:35:53 PM 35.9114 -115.4100 51° Northeast 449 517 33,000 -48 Descending Los Angeles Center
Tue 09:36:55 PM 36.0081 -115.2667 50° Northeast 455 524 33,000 49 Level Los Angeles Center
Tue 09:37:56 PM 36.0897 -115.1469 50° Northeast 458 527 33,100 49 Climbing Los Angeles Center
Tue 09:38:58 PM 36.1775 -115.0339 46° Northeast 460 529 33,100 -48 Level Los Angeles Center
Tue 09:40:00 PM 36.2681 -114.9247 44° Northeast 458 527 33,000 -48 Descending Los Angeles Center
Tue 09:41:02 PM 36.3550 -114.8133 46° Northeast 454 522 33,000  Level Los Angeles Center
Tue 09:42:03 PM 36.4578 -114.6775 47° Northeast 451 519 33,000 49 Level Los Angeles Center
Tue 09:43:05 PM 36.5453 -114.5639 46° Northeast 455 524 33,100  Climbing Los Angeles Center
Tue 09:44:07 PM 36.6322 -114.4511 46° Northeast 453 521 33,000 -48 Descending Los Angeles Center
Tue 09:45:09 PM 36.7175 -114.3369 47° Northeast 451 519 33,000  Level Los Angeles Center
Tue 09:46:10 PM 36.8147 -114.2392 39° Northeast 451 519 33,000  Level Los Angeles Center
Tue 09:47:12 PM 36.9233 -114.1578 31° Northeast 454 522 33,000  Level Los Angeles Center
Tue 09:48:13 PM 37.0292 -114.0742 32° Northeast 452 520 33,000  Level Los Angeles Center
Tue 09:49:15 PM 37.1361 -113.9900 32° Northeast 455 524 33,000  Level Los Angeles Center
Tue 09:50:16 PM 37.2653 -113.8900 32° Northeast 455 524 33,000  Level Los Angeles Center
Tue 09:51:18 PM 37.3647 -113.8117 32° Northeast 453 521 33,000  Level Los Angeles Center
Tue 09:52:20 PM 37.4714 -113.7267 32° Northeast 453 521 33,000  Level Los Angeles Center
Tue 09:53:21 PM 37.5797 -113.6425 32° Northeast 454 522 33,000  Level Los Angeles Center
Tue 09:54:22 PM 37.6867 -113.5589 32° Northeast 453 521 33,000  Level Salt Lake Center
Tue 09:55:24 PM 37.7933 -113.4728 33° Northeast 452 520 33,000  Level Salt Lake Center
Tue 09:56:25 PM 37.9244 -113.3753 30° Northeast 453 521 33,000 49 Level Salt Lake Center
Tue 09:57:27 PM 38.0436 -113.3922 354° North 429 494 33,100 48 Climbing Salt Lake Center
Tue 09:58:29 PM 38.1611 -113.4183 350° North 428 493 33,100 -244 Level Salt Lake Center
Tue 09:59:30 PM 38.2797 -113.4436 351° North 429 494 32,600 -585 Descending Salt Lake Center
Tue 10:00:32 PM 38.4017 -113.4719 350° North 440 506 31,900 -242 Descending Salt Lake Center
Tue 10:01:34 PM 38.5247 -113.5000 350° North 446 513 32,100 49 Climbing Salt Lake Center
Tue 10:02:35 PM 38.6461 -113.5269 350° North 444 511 32,000 -49 Descending Salt Lake Center
Tue 10:03:37 PM 38.7658 -113.5539 350° North 439 505 32,000  Level Salt Lake Center
Tue 10:04:38 PM 38.8847 -113.5811 350° North 434 499 32,000 -49 Level Salt Lake Center
Tue 10:05:40 PM 39.0272 -113.6147 350° North 432 497 31,900 -484 Descending Salt Lake Center
Tue 10:06:42 PM 39.1453 -113.6425 350° North 432 497 31,000 -878 Descending Salt Lake Center
Tue 10:07:43 PM 39.2644 -113.6703 350° North 432 497 30,100 -927 Descending Salt Lake Center
Tue 10:08:45 PM 39.3814 -113.6983 349° North 428 493 29,100 -927 Descending Salt Lake Center
Tue 10:09:46 PM 39.4981 -113.7247 350° North 426 490 28,200 -878 Descending Salt Lake Center
Tue 10:10:48 PM 39.6133 -113.7525 349° North 421 484 27,300 -968 Descending Salt Lake Center
Tue 10:11:50 PM 39.7372 -113.7811 350° North 420 483 26,200 -1,024 Descending Salt Lake Center
Tue 10:12:51 PM 39.8547 -113.7839 359° North 421 484 25,200 -927 Descending Salt Lake Center
Tue 10:13:53 PM 39.9717 -113.7808 North 421 484 24,300 -919 Descending Salt Lake Center
Tue 10:14:55 PM 40.0878 -113.7803 360° North 418 481 23,300 -1,610 Descending Salt Lake Center
Tue 10:15:56 PM 40.2203 -113.7769 North 399 459 21,000 -2,146 Descending Salt Lake Center
Tue 10:16:58 PM 40.3269 -113.7714 North 386 444 18,900 -1,935 Descending Salt Lake Center
Tue 10:18:00 PM 40.4303 -113.7658 North 376 433 17,000 -1,707 Descending Salt Lake Center
Tue 10:19:01 PM 40.5297 -113.7653 360° North 366 421 15,400 -1,463 Descending Salt Lake Center
Tue 10:20:03 PM 40.6183 -113.7578 North 350 403 14,000 -1,016 Descending Salt Lake Center
Tue 10:21:05 PM 40.6742 -113.7903 336° Northwest 280 322 13,300 -1,317 Descending Salt Lake Center
Tue 10:22:06 PM 40.7206 -113.8394 321° Northwest 242 278 11,300 -2,244 Descending Salt Lake Center
Tue 10:23:08 PM 40.7286 -113.9006 280° West 221 254 8,700 -2,419 Descending Salt Lake Center
Tue 10:24:10 PM 40.7028 -113.9436 232° Southwest 189 217 6,300 -2,323 Descending Salt Lake Center

Login

Don't have an account? Register now (free) for customized features, flight alerts, and more!